createdAt,value
2022-08-11T00:03:16.913Z,15.99
2022-08-11T00:05:48.470Z,15.96
2022-08-11T00:08:23.510Z,15.95
2022-08-11T00:10:55.993Z,15.81
2022-08-11T00:13:32.267Z,15.86
2022-08-11T00:16:00.795Z,15.81
2022-08-11T00:18:29.840Z,15.72
2022-08-11T00:21:01.496Z,14.57
2022-08-11T00:23:29.704Z,15.49
2022-08-11T00:25:59.020Z,15.43
2022-08-11T00:28:29.320Z,15.63
2022-08-11T00:31:00.027Z,15.62
2022-08-11T00:33:41.868Z,15.58
2022-08-11T00:36:20.833Z,15.15
2022-08-11T00:38:53.539Z,15.49
2022-08-11T00:41:33.453Z,15.45
2022-08-11T00:44:27.805Z,15.41
2022-08-11T00:47:06.264Z,15.12
2022-08-11T00:49:47.710Z,15.34
2022-08-11T00:52:40.381Z,15.24
2022-08-11T00:55:47.297Z,15.26
2022-08-11T00:59:34.391Z,15.18
2022-08-11T01:02:07.064Z,15.12
2022-08-11T01:05:12.581Z,15.08
2022-08-11T01:08:30.495Z,14.93
2022-08-11T01:11:26.045Z,14.99
2022-08-11T01:14:34.206Z,14.94
2022-08-11T01:17:35.790Z,14.90
2022-08-11T01:20:45.904Z,13.72
2022-08-11T01:23:55.040Z,14.75
2022-08-11T01:26:55.247Z,14.76
2022-08-11T01:29:55.600Z,14.72
2022-08-11T01:33:06.736Z,14.49
2022-08-11T01:36:03.549Z,14.58
2022-08-11T01:39:04.155Z,14.24
2022-08-11T01:42:27.993Z,14.58
2022-08-11T01:45:31.554Z,14.54
2022-08-11T01:48:06.136Z,14.40
2022-08-11T01:50:47.463Z,14.28
2022-08-11T01:53:29.630Z,14.08
2022-08-11T01:56:12.059Z,14.12
2022-08-11T01:58:49.415Z,14.15
2022-08-11T02:01:34.779Z,13.58
2022-08-11T02:04:17.117Z,13.46
2022-08-11T02:06:56.380Z,14.31
2022-08-11T02:09:49.715Z,13.08
2022-08-11T02:12:32.112Z,13.97
2022-08-11T02:15:09.128Z,12.89
2022-08-11T02:17:49.360Z,13.89
2022-08-11T02:20:41.541Z,13.46
2022-08-11T02:24:04.489Z,14.09
2022-08-11T02:26:36.565Z,14.05
2022-08-11T02:29:12.500Z,14.01
2022-08-11T02:32:25.008Z,13.73
2022-08-11T02:35:04.843Z,13.06
2022-08-11T02:37:45.164Z,13.88
2022-08-11T02:40:35.433Z,13.46
2022-08-11T02:43:15.072Z,12.97
2022-08-11T02:45:55.594Z,13.83
2022-08-11T02:48:54.967Z,13.82
2022-08-11T02:51:31.265Z,12.76
2022-08-11T02:54:09.795Z,13.75
2022-08-11T02:56:52.265Z,13.76
2022-08-11T02:59:51.261Z,13.73
2022-08-11T03:02:34.656Z,12.07
2022-08-11T03:05:11.876Z,13.67
2022-08-11T03:07:49.319Z,13.66
2022-08-11T03:10:24.291Z,12.76
2022-08-11T03:13:19.913Z,13.61
2022-08-11T03:16:19.137Z,12.65
2022-08-11T03:19:02.678Z,12.58
2022-08-11T03:21:52.334Z,13.23
2022-08-11T03:24:34.998Z,12.44
2022-08-11T03:27:08.524Z,13.31
2022-08-11T03:29:48.873Z,13.44
2022-08-11T03:32:27.412Z,13.43
2022-08-11T03:34:57.421Z,13.29
2022-08-11T03:37:50.901Z,12.49
2022-08-11T03:42:01.948Z,13.01
2022-08-11T03:44:09.041Z,13.32
2022-08-11T03:46:57.445Z,11.96
2022-08-11T03:49:35.006Z,11.69
2022-08-11T03:52:14.293Z,13.24
2022-08-11T03:54:55.457Z,12.32
2022-08-11T03:58:03.712Z,12.44
2022-08-11T04:01:00.572Z,12.98
2022-08-11T04:04:13.060Z,13.13
2022-08-11T04:07:29.596Z,13.12
2022-08-11T04:10:23.277Z,13.03
2022-08-11T04:13:36.346Z,13.06
2022-08-11T04:16:42.153Z,12.97
2022-08-11T04:19:45.904Z,12.98
2022-08-11T04:22:48.483Z,13.03
2022-08-11T04:25:57.561Z,12.82
2022-08-11T04:28:51.096Z,13.05
2022-08-11T04:31:44.056Z,13.06
2022-08-11T04:34:52.081Z,12.93
2022-08-11T04:37:53.622Z,13.10
2022-08-11T04:41:19.494Z,12.83
2022-08-11T04:44:21.461Z,12.17
2022-08-11T04:47:05.162Z,13.15
2022-08-11T04:50:13.761Z,13.23
2022-08-11T04:53:22.152Z,13.24
2022-08-11T04:56:26.135Z,14.16
2022-08-11T04:59:29.997Z,14.79
2022-08-11T05:02:38.598Z,15.46
2022-08-11T05:05:32.701Z,16.17
2022-08-11T05:08:51.480Z,16.80
2022-08-11T05:11:44.977Z,17.32
2022-08-11T05:14:51.053Z,17.67
2022-08-11T05:17:46.466Z,18.04
2022-08-11T05:20:32.288Z,18.39
2022-08-11T05:23:24.063Z,18.82
2022-08-11T05:26:46.149Z,19.34
2022-08-11T05:29:24.356Z,20.00
2022-08-11T05:32:19.580Z,20.59
2022-08-11T05:34:53.883Z,21.14
2022-08-11T05:37:31.934Z,21.66
2022-08-11T05:40:24.380Z,22.22
2022-08-11T05:43:16.129Z,22.78
2022-08-11T05:46:06.251Z,23.30
2022-08-11T05:48:55.567Z,23.93
2022-08-11T05:51:54.663Z,24.18
2022-08-11T05:54:42.138Z,25.26
2022-08-11T05:57:48.521Z,25.58
2022-08-11T06:00:10.590Z,26.53
2022-08-11T06:02:43.199Z,27.17
2022-08-11T06:05:12.628Z,27.82
2022-08-11T06:07:49.138Z,28.45
2022-08-11T06:10:29.985Z,29.13
2022-08-11T06:13:00.988Z,29.78
2022-08-11T06:15:35.087Z,30.22
2022-08-11T06:18:13.036Z,29.85
2022-08-11T06:20:48.653Z,30.24
2022-08-11T06:23:19.583Z,31.52
2022-08-11T06:25:48.400Z,32.06
2022-08-11T06:28:20.715Z,32.33
2022-08-11T06:30:51.376Z,33.25
2022-08-11T06:33:30.622Z,32.83
2022-08-11T06:36:06.866Z,34.46
2022-08-11T06:38:54.806Z,35.05
2022-08-11T06:41:31.938Z,35.20
2022-08-11T06:44:29.105Z,35.09
2022-08-11T06:47:08.067Z,36.51
2022-08-11T06:49:56.675Z,37.40
2022-08-11T06:52:44.049Z,38.25
2022-08-11T06:55:56.787Z,37.76
2022-08-11T06:58:45.281Z,38.65
2022-08-11T07:01:22.515Z,38.86
2022-08-11T07:04:07.977Z,39.70
2022-08-11T07:07:11.312Z,39.98
2022-08-11T07:10:22.621Z,41.11
2022-08-11T07:13:44.575Z,41.05
2022-08-11T07:16:11.317Z,42.74
2022-08-11T07:19:00.679Z,43.25
2022-08-11T07:22:03.182Z,43.66
2022-08-11T07:24:58.595Z,44.14
2022-08-11T07:27:54.391Z,44.38
2022-08-11T07:30:22.422Z,44.75
2022-08-11T07:32:52.806Z,45.24
2022-08-11T07:35:25.462Z,45.65
2022-08-11T07:38:02.172Z,45.97
2022-08-11T07:40:32.311Z,46.36
2022-08-11T07:43:02.276Z,46.71
2022-08-11T07:45:48.809Z,46.73
2022-08-11T07:48:35.053Z,47.44
2022-08-11T07:51:21.530Z,47.88
2022-08-11T07:53:58.700Z,48.54
2022-08-11T07:56:55.383Z,48.80
2022-08-11T08:00:00.632Z,49.36
2022-08-11T08:02:58.542Z,49.96
2022-08-11T08:05:44.702Z,50.11
2022-08-11T08:08:33.074Z,50.59
2022-08-11T08:11:23.994Z,51.02
2022-08-11T08:14:14.101Z,51.41
2022-08-11T08:17:00.730Z,51.66
2022-08-11T08:19:29.370Z,51.99
2022-08-11T08:22:37.456Z,52.38
2022-08-11T08:24:46.380Z,52.72
2022-08-11T08:27:16.320Z,52.94
2022-08-11T08:30:04.054Z,52.91
2022-08-11T08:32:35.056Z,52.94
2022-08-11T08:35:05.464Z,53.33
2022-08-11T08:37:45.685Z,53.53
2022-08-11T08:40:16.043Z,53.78
2022-08-11T08:42:51.410Z,53.88
2022-08-11T08:45:20.167Z,54.13
2022-08-11T08:47:53.449Z,54.33
2022-08-11T08:50:27.705Z,54.31
2022-08-11T08:52:59.311Z,54.24
2022-08-11T08:55:29.655Z,54.38
2022-08-11T08:58:01.035Z,54.67
2022-08-11T09:00:40.613Z,54.85
2022-08-11T09:03:36.625Z,55.00
2022-08-11T09:05:58.439Z,55.19
2022-08-11T09:08:27.479Z,54.16
2022-08-11T09:11:14.488Z,53.60
2022-08-11T09:13:45.987Z,53.48
2022-08-11T09:16:31.732Z,52.96
2022-08-11T09:19:02.317Z,53.60
2022-08-11T09:21:46.499Z,54.23
2022-08-11T09:24:36.149Z,54.48
2022-08-11T09:27:07.103Z,54.25
2022-08-11T09:29:38.909Z,54.16
2022-08-11T09:32:08.790Z,53.26
2022-08-11T09:34:38.161Z,52.88
2022-08-11T09:37:54.945Z,52.61
2022-08-11T09:40:33.617Z,52.15
2022-08-11T09:43:23.658Z,51.54
2022-08-11T09:45:55.524Z,51.98
2022-08-11T09:48:26.148Z,52.08
2022-08-11T09:50:56.226Z,52.57
2022-08-11T09:53:41.065Z,52.29
2022-08-11T09:56:34.341Z,52.83
2022-08-11T09:59:04.328Z,53.40
2022-08-11T10:01:41.617Z,53.48
2022-08-11T10:04:16.214Z,53.59
2022-08-11T10:07:04.171Z,54.27
2022-08-11T10:09:39.053Z,53.16
2022-08-11T10:12:11.589Z,51.57
2022-08-11T10:15:02.667Z,49.51
2022-08-11T10:18:06.235Z,48.16
2022-08-11T10:26:00.148Z,50.81
2022-08-11T10:28:33.590Z,51.59
2022-08-11T10:31:36.291Z,51.17
2022-08-11T10:34:16.552Z,50.99
2022-08-11T10:36:48.178Z,51.97
2022-08-11T10:39:21.193Z,53.17
2022-08-11T10:42:10.791Z,53.90
2022-08-11T10:44:46.474Z,53.05
2022-08-11T10:47:46.797Z,51.83
2022-08-11T10:50:36.813Z,51.61
2022-08-11T10:53:22.527Z,52.52
2022-08-11T10:56:08.699Z,53.38
2022-08-11T10:58:48.682Z,51.90
2022-08-11T11:01:20.235Z,50.96
2022-08-11T11:03:49.132Z,50.93
2022-08-11T11:06:28.388Z,51.48
2022-08-11T11:09:04.573Z,51.42
2022-08-11T11:11:55.340Z,49.82
2022-08-11T11:14:46.786Z,48.90
2022-08-11T11:21:45.269Z,52.79
2022-08-11T11:24:22.495Z,53.48
2022-08-11T11:26:56.755Z,52.32
2022-08-11T11:29:52.982Z,52.53
2022-08-11T11:32:28.800Z,52.39
2022-08-11T11:35:18.965Z,50.34
2022-08-11T11:38:03.902Z,48.45
2022-08-11T11:45:37.353Z,43.48
2022-08-11T11:58:06.324Z,37.35
2022-08-11T12:05:16.353Z,35.25
2022-08-11T12:08:29.135Z,34.59
2022-08-11T12:28:58.500Z,34.49
2022-08-11T12:31:58.702Z,32.47
2022-08-11T12:35:35.361Z,31.93
2022-08-11T12:38:35.563Z,32.00
2022-08-11T12:45:58.795Z,32.66
2022-08-11T12:52:27.908Z,33.36
2022-08-11T12:55:20.996Z,31.61
2022-08-11T13:10:52.964Z,30.46
2022-08-11T13:24:00.461Z,30.76
2022-08-11T13:46:42.177Z,31.06
2022-08-11T13:49:54.693Z,31.58
2022-08-11T13:55:51.047Z,30.93
2022-08-11T13:58:40.104Z,29.91
2022-08-11T14:02:22.744Z,31.22
2022-08-11T14:05:46.799Z,29.60
2022-08-11T14:09:15.450Z,30.84
2022-08-11T14:12:23.487Z,30.53
2022-08-11T14:35:13.047Z,30.11
2022-08-11T14:50:28.332Z,29.80
2022-08-11T14:54:11.111Z,31.19
2022-08-11T14:56:38.803Z,31.13
2022-08-11T14:59:08.107Z,31.13
2022-08-11T15:02:07.497Z,31.35
2022-08-11T15:17:13.940Z,31.03
2022-08-11T15:20:34.012Z,30.99
2022-08-11T15:23:32.611Z,30.96
2022-08-11T15:26:46.806Z,30.97
2022-08-11T15:33:38.697Z,30.41
2022-08-11T15:36:42.966Z,31.02
2022-08-11T15:39:51.904Z,30.94
2022-08-11T15:50:14.100Z,31.03
2022-08-11T15:57:51.036Z,30.99
2022-08-11T16:01:01.253Z,30.94
2022-08-11T16:04:15.409Z,30.60
2022-08-11T16:15:04.850Z,30.88
2022-08-11T16:17:55.048Z,30.81
2022-08-11T16:21:26.143Z,30.78
2022-08-11T16:37:20.029Z,30.59
2022-08-11T16:40:01.268Z,30.85
2022-08-11T16:43:22.764Z,29.44
2022-08-11T16:46:34.022Z,30.05
2022-08-11T16:49:04.064Z,28.92
2022-08-11T16:51:33.431Z,29.52
2022-08-11T16:54:05.097Z,29.75
2022-08-11T16:56:52.172Z,30.72
2022-08-11T17:21:23.073Z,29.88
2022-08-11T17:23:55.108Z,29.09
2022-08-11T17:26:49.512Z,28.80
2022-08-11T17:29:24.818Z,29.20
2022-08-11T17:32:16.072Z,28.78
2022-08-11T17:35:32.459Z,29.67
2022-08-11T17:38:07.753Z,29.58
2022-08-11T17:40:38.736Z,28.61
2022-08-11T17:47:40.809Z,28.28
2022-08-11T17:51:21.771Z,28.20
2022-08-11T17:55:17.116Z,28.74
2022-08-11T17:58:27.079Z,29.30
2022-08-11T18:01:01.994Z,27.72
2022-08-11T18:03:41.033Z,29.04
2022-08-11T18:06:13.226Z,27.56
2022-08-11T18:09:02.600Z,28.52
2022-08-11T18:12:07.162Z,28.40
2022-08-11T18:14:57.966Z,28.17
2022-08-11T18:17:43.742Z,27.88
2022-08-11T18:20:30.975Z,27.64
2022-08-11T18:23:20.555Z,27.35
2022-08-11T18:26:07.243Z,27.18
2022-08-11T18:28:58.684Z,26.96
2022-08-11T18:31:45.443Z,26.76
2022-08-11T18:34:39.167Z,26.50
2022-08-11T18:37:31.393Z,26.33
2022-08-11T18:40:20.254Z,26.15
2022-08-11T18:43:07.246Z,25.94
2022-08-11T18:46:06.410Z,25.76
2022-08-11T18:48:55.138Z,25.44
2022-08-11T18:51:42.690Z,25.34
2022-08-11T18:54:31.289Z,25.16
2022-08-11T18:57:21.370Z,23.57
2022-08-11T19:00:10.834Z,24.77
2022-08-11T19:02:58.122Z,24.45
2022-08-11T19:06:08.396Z,24.23
2022-08-11T19:08:57.244Z,24.19
2022-08-11T19:11:47.386Z,24.01
2022-08-11T19:14:33.507Z,23.61
2022-08-11T19:17:44.022Z,23.62
2022-08-11T19:20:29.136Z,23.49
2022-08-11T19:23:16.015Z,23.30
2022-08-11T19:26:02.335Z,23.07
2022-08-11T19:28:50.488Z,23.04
2022-08-11T19:31:42.306Z,22.89
2022-08-11T19:34:32.352Z,22.73
2022-08-11T19:37:22.159Z,21.85
2022-08-11T19:40:11.835Z,22.47
2022-08-11T19:42:58.632Z,22.35
2022-08-11T19:45:51.626Z,22.22
2022-08-11T19:48:40.505Z,21.92
2022-08-11T19:51:27.356Z,20.93
2022-08-11T19:54:13.842Z,21.84
2022-08-11T19:57:00.905Z,21.73
2022-08-11T19:59:47.312Z,21.50
2022-08-11T20:02:34.019Z,21.23
2022-08-11T20:05:19.770Z,21.38
2022-08-11T20:08:06.482Z,21.06
2022-08-11T20:10:53.524Z,20.72
2022-08-11T20:13:41.649Z,21.04
2022-08-11T20:16:32.625Z,20.80
2022-08-11T20:19:26.142Z,20.73
2022-08-11T20:22:26.640Z,20.57
2022-08-11T20:25:13.993Z,20.37
2022-08-11T20:28:01.829Z,20.46
2022-08-11T20:30:51.908Z,20.37
2022-08-11T20:33:39.071Z,20.02
2022-08-11T20:36:27.272Z,20.17
2022-08-11T20:39:14.656Z,19.86
2022-08-11T20:42:01.048Z,19.98
2022-08-11T20:44:48.829Z,19.88
2022-08-11T20:47:59.822Z,19.28
2022-08-11T20:50:45.819Z,19.65
2022-08-11T20:53:36.063Z,18.85
2022-08-11T20:56:28.847Z,19.29
2022-08-11T20:59:18.309Z,19.36
2022-08-11T21:02:09.799Z,19.27
2022-08-11T21:04:57.021Z,18.88
2022-08-11T21:07:56.643Z,18.85
2022-08-11T21:10:50.620Z,18.93
2022-08-11T21:13:39.202Z,18.97
2022-08-11T21:16:27.175Z,18.65
2022-08-11T21:19:18.847Z,18.80
2022-08-11T21:22:28.085Z,18.63
2022-08-11T21:25:29.284Z,18.62
2022-08-11T21:28:20.748Z,18.23
2022-08-11T21:31:08.685Z,18.11
2022-08-11T21:33:55.605Z,18.39
2022-08-11T21:36:43.332Z,17.38
2022-08-11T21:39:32.062Z,18.25
2022-08-11T21:42:19.730Z,17.93
2022-08-11T21:45:07.755Z,17.65
2022-08-11T21:48:00.871Z,17.89
2022-08-11T21:50:46.674Z,17.94
2022-08-11T21:53:33.473Z,17.87
2022-08-11T21:56:19.773Z,17.83
2022-08-11T21:59:07.782Z,17.48
2022-08-11T22:01:55.290Z,17.64
2022-08-11T22:04:41.782Z,17.30
2022-08-11T22:07:28.074Z,17.41
2022-08-11T22:10:40.438Z,17.32
2022-08-11T22:13:19.712Z,17.41
2022-08-11T22:16:05.700Z,17.08
2022-08-11T22:18:54.718Z,17.29
2022-08-11T22:22:02.791Z,16.91
2022-08-11T22:24:48.529Z,17.04
2022-08-11T22:27:33.956Z,17.09
2022-08-11T22:30:19.330Z,17.05
2022-08-11T22:33:05.830Z,17.00
2022-08-11T22:35:54.030Z,16.97
2022-08-11T22:38:40.335Z,16.91
2022-08-11T22:41:25.606Z,16.84
2022-08-11T22:44:11.119Z,16.77
2022-08-11T22:46:56.958Z,16.41
2022-08-11T22:49:57.732Z,16.65
2022-08-11T22:52:47.266Z,16.62
2022-08-11T22:55:33.522Z,16.46
2022-08-11T22:58:20.582Z,16.45
2022-08-11T23:01:06.961Z,15.67
2022-08-11T23:03:53.148Z,16.42
2022-08-11T23:06:39.234Z,16.20
2022-08-11T23:09:27.704Z,16.15
2022-08-11T23:12:14.008Z,16.15
2022-08-11T23:15:00.304Z,16.21
2022-08-11T23:17:46.947Z,16.15
2022-08-11T23:20:43.437Z,16.09
2022-08-11T23:23:41.676Z,14.93
2022-08-11T23:26:30.035Z,15.98
2022-08-11T23:29:17.560Z,15.85
2022-08-11T23:32:04.151Z,15.72
2022-08-11T23:35:03.599Z,15.57
2022-08-11T23:37:51.386Z,15.27
2022-08-11T23:40:37.197Z,14.87
2022-08-11T23:43:25.274Z,15.25
2022-08-11T23:46:11.010Z,15.58
2022-08-11T23:48:57.984Z,15.61
2022-08-11T23:51:46.020Z,15.57
2022-08-11T23:54:37.118Z,15.31
2022-08-11T23:57:23.978Z,15.46
